Grand Junction, Tennessee
Current Conditions -  °F | °C
As of 10:15 PM on Tuesday 25 Nov 2014 (Local Time) from KOLV Reporting Station
Clear Clear  
Wind Chill: 27°   Ceiling: Unl
Heat Index: 32°   Visibility: 10mi
Dew Point: 32°   Wind: 5mph
Humidity: 100%   Direction: 210°SSW
Pressure: 30.2"   Gusts: NA
Location:  35.05°N, 89.19°W
Report Text: KOLV 260415Z AUTO 21004KT 10SM CLR 00/00 A3020 RMK A01 P000
Loading
Personal Weather Stations






























Interactive Weather Map New forecast layout! Learn more

10-Day Weather Forecast

Advertisements
Track Severe Weather on mobile